Time;durP1;ratioP1;P1;durP2;ratioP2;P2;SDS_P1;SDS_P2;PMS_P1;PMS_P2;Temp;Humidity;BMP_temperature;BMP_pressure;BME280_temperature;BME280_humidity;BME280_pressure;Samples;Min_cycle;Max_cycle;Signal;HPM_P1;HPM_P2
2022/07/02 04:31:44;;;;;;;;;4.00;4.00;;;;;17.10;54.01;101748.56;5051889;27;45488;-70
2022/07/02 04:34:09;;;;;;;;;2.50;2.50;;;;;17.12;53.86;101746.63;5036491;28;46055;-71
2022/07/02 04:36:35;;;;;;;;;3.00;3.00;;;;;17.14;53.89;101750.13;5036107;28;45371;-72
2022/07/02 04:39:01;;;;;;;;;2.50;2.50;;;;;17.16;53.69;101740.97;5036411;28;45316;-71
2022/07/02 04:41:27;;;;;;;;;4.00;2.50;;;;;17.23;53.71;101755.03;5017915;28;45382;-69
2022/07/02 04:43:52;;;;;;;;;3.00;3.00;;;;;17.25;53.67;101755.81;5016092;28;46113;-73
2022/07/02 04:46:18;;;;;;;;;4.00;4.00;;;;;17.23;53.34;101752.31;5015803;28;45455;-71
2022/07/02 04:48:43;;;;;;;;;3.00;3.00;;;;;17.13;53.35;101730.28;5016533;28;45312;-69
2022/07/02 04:51:08;;;;;;;;;2.00;2.00;;;;;17.22;53.09;101740.59;5015830;28;45512;-70
2022/07/02 04:53:34;;;;;;;;;3.25;3.00;;;;;17.25;53.08;101750.41;5014260;28;47244;-72
2022/07/02 04:55:59;;;;;;;;;2.00;2.00;;;;;17.27;53.36;101748.44;5015917;28;45409;-71
2022/07/02 04:58:25;;;;;;;;;3.75;3.75;;;;;17.27;52.92;101743.91;5016628;28;45384;-70
2022/07/02 05:00:51;;;;;;;;;4.25;3.00;;;;;17.31;53.16;101744.63;5015529;28;45402;-71
2022/07/02 05:03:16;;;;;;;;;3.50;3.50;;;;;17.39;52.73;101743.19;5015808;28;46129;-70
2022/07/02 05:05:41;;;;;;;;;4.50;4.50;;;;;17.25;52.63;101717.88;5015804;28;45613;-71
2022/07/02 05:08:07;;;;;;;;;3.00;3.00;;;;;17.41;52.73;101737.69;5015660;28;45424;-69
2022/07/02 05:10:32;;;;;;;;;4.00;4.00;;;;;17.46;52.70;101743.72;5021931;28;45566;-70
2022/07/02 05:12:57;;;;;;;;;5.00;3.00;;;;;17.46;52.47;101741.00;5035462;28;45977;-70
2022/07/02 05:15:23;;;;;;;;;5.00;3.00;;;;;17.49;52.10;101743.53;5035604;28;50808;-69
2022/07/02 05:17:49;;;;;;;;;4.25;4.25;;;;;17.56;52.04;101741.34;5035467;28;45269;-71
2022/07/02 05:20:14;;;;;;;;;2.00;2.00;;;;;17.58;51.95;101753.84;5035535;28;45319;-70
2022/07/02 05:22:39;;;;;;;;;3.00;3.00;;;;;17.62;51.73;101746.41;5016184;28;45987;-71
2022/07/02 05:25:05;;;;;;;;;4.00;2.75;;;;;17.62;51.68;101747.28;5015804;28;45296;-71
2022/07/02 05:27:30;;;;;;;;;2.00;2.00;;;;;17.70;51.33;101757.69;5015372;28;45425;-70
2022/07/02 05:29:56;;;;;;;;;3.50;3.50;;;;;17.72;51.78;101756.63;5015706;28;45207;-71
2022/07/02 05:32:21;;;;;;;;;3.00;3.00;;;;;17.84;51.32;101754.16;5013894;28;45460;-70
2022/07/02 05:34:46;;;;;;;;;3.25;2.50;;;;;17.86;51.52;101744.97;5015745;28;45324;-70
2022/07/02 05:37:12;;;;;;;;;3.00;3.00;;;;;17.83;50.76;101726.16;5014154;28;45745;-71
2022/07/02 05:39:37;;;;;;;;;4.00;4.00;;;;;18.02;50.96;101753.06;5015190;28;45806;-70
2022/07/02 05:42:03;;;;;;;;;3.75;3.75;;;;;18.04;50.83;101746.56;5014676;28;46135;-72
2022/07/02 05:44:28;;;;;;;;;2.00;2.00;;;;;18.08;51.31;101748.13;5015323;28;45527;-70
2022/07/02 05:46:53;;;;;;;;;3.00;3.00;;;;;18.10;50.78;101737.19;5014859;28;45218;-70
2022/07/02 05:49:19;;;;;;;;;4.00;3.00;;;;;18.21;50.22;101742.78;5015269;28;45553;-70
2022/07/02 05:51:44;;;;;;;;;5.25;4.00;;;;;18.22;50.10;101749.97;5015053;28;45498;-70
2022/07/02 05:54:10;;;;;;;;;2.50;2.50;;;;;18.19;49.93;101744.75;5015138;28;45329;-71
2022/07/02 05:56:35;;;;;;;;;3.00;3.00;;;;;18.25;49.81;101743.50;5015179;28;45336;-70
2022/07/02 05:59:00;;;;;;;;;5.00;3.00;;;;;18.27;49.61;101745.16;5015057;28;45377;-70
2022/07/02 06:01:27;;;;;;;;;3.00;3.00;;;;;18.35;50.02;101752.81;5014551;28;45817;-69
2022/07/02 06:03:52;;;;;;;;;4.00;3.00;;;;;18.32;49.35;101744.84;4990658;28;45875;-71
2022/07/02 06:09:01;;;;;;;;;3.75;3.75;;;;;18.36;50.03;101755.44;5014741;28;45391;-71
2022/07/02 06:11:29;;;;;;;;;3.00;3.00;;;;;18.38;49.50;101748.03;5014770;28;46027;-69
2022/07/02 06:13:54;;;;;;;;;4.50;3.00;;;;;18.42;49.91;101752.34;5015106;28;45323;-69
2022/07/02 06:16:19;;;;;;;;;3.75;2.00;;;;;18.44;49.90;101755.84;5016414;28;45325;-72
2022/07/02 06:18:45;;;;;;;;;3.00;3.00;;;;;18.48;49.97;101751.06;5014563;28;45454;-69
2022/07/02 06:21:10;;;;;;;;;2.75;2.75;;;;;18.49;49.96;101753.69;5014790;28;45414;-68
2022/07/02 06:23:35;;;;;;;;;3.00;3.00;;;;;18.50;49.50;101743.69;5014584;28;45375;-70
2022/07/02 06:26:01;;;;;;;;;4.75;4.75;;;;;18.63;49.29;101760.16;5014477;28;45223;-71
2022/07/02 06:28:26;;;;;;;;;1.25;1.25;;;;;18.59;49.47;101740.44;5014557;28;45265;-71
2022/07/02 06:30:51;;;;;;;;;3.50;3.50;;;;;18.66;49.05;101755.38;5001179;28;45512;-70
2022/07/02 06:33:17;;;;;;;;;6.25;3.25;;;;;18.68;49.43;101749.84;5014576;28;45376;-69
2022/07/02 06:35:43;;;;;;;;;4.00;4.00;;;;;18.66;49.29;101741.78;5014435;28;45348;-73
2022/07/02 06:38:09;;;;;;;;;5.00;5.00;;;;;18.72;49.24;101751.38;5014354;28;45357;-70
2022/07/02 06:40:34;;;;;;;;;6.00;5.00;;;;;18.70;48.64;101740.66;5012900;28;46031;-69
2022/07/02 06:42:59;;;;;;;;;5.25;5.00;;;;;18.78;48.75;101732.88;5015259;28;45275;-69
2022/07/02 06:45:25;;;;;;;;;5.00;5.00;;;;;18.99;48.56;101738.75;4996621;28;45486;-69
2022/07/02 06:47:50;;;;;;;;;5.00;5.00;;;;;19.11;48.41;101740.66;5014076;28;45526;-70
2022/07/02 06:50:18;;;;;;;;;5.75;4.00;;;;;19.19;47.91;101738.31;5012835;28;46992;-70
2022/07/02 06:52:45;;;;;;;;;4.25;4.25;;;;;19.24;47.94;101740.72;5014317;28;45314;-69
2022/07/02 06:55:11;;;;;;;;;3.00;3.00;;;;;19.28;48.17;101745.00;5014499;28;45338;-68
2022/07/02 06:57:37;;;;;;;;;3.50;3.50;;;;;19.32;47.92;101740.19;5013885;28;45455;-70
2022/07/02 07:00:04;;;;;;;;;3.00;3.00;;;;;19.27;47.61;101732.38;5013997;28;46210;-70
2022/07/02 07:02:29;;;;;;;;;4.00;2.50;;;;;19.35;47.89;101740.88;5013827;28;45393;-69
2022/07/02 07:04:55;;;;;;;;;3.00;3.00;;;;;19.36;47.41;101744.47;5013570;28;45301;-71
2022/07/02 07:07:26;;;;;;;;;3.00;3.00;;;;;19.42;47.47;101744.06;5014022;28;45414;-70
2022/07/02 07:09:52;;;;;;;;;3.00;3.00;;;;;19.40;47.48;101737.84;5013931;28;45272;-70
2022/07/02 07:12:17;;;;;;;;;3.00;3.00;;;;;19.44;47.45;101733.97;5013894;28;45260;-71
2022/07/02 07:14:42;;;;;;;;;1.00;1.00;;;;;19.50;47.14;101744.44;5014227;28;45335;-70
2022/07/02 07:17:08;;;;;;;;;3.00;3.00;;;;;19.52;46.55;101737.94;5013994;28;45187;-70
2022/07/02 07:19:33;;;;;;;;;3.00;3.00;;;;;19.53;47.07;101736.09;5013979;28;46314;-69
2022/07/02 07:21:58;;;;;;;;;5.00;3.00;;;;;19.55;46.82;101736.88;5013799;28;45327;-69
2022/07/02 07:24:24;;;;;;;;;2.25;2.25;;;;;19.59;46.54;101733.81;5014157;28;45313;-70
2022/07/02 07:26:49;;;;;;;;;3.00;2.25;;;;;19.61;46.50;101731.00;5013916;28;45571;-71
2022/07/02 07:29:15;;;;;;;;;1.25;1.25;;;;;19.69;46.56;101728.63;5013869;28;45375;-75
2022/07/02 07:31:41;;;;;;;;;1.25;1.25;;;;;19.71;46.38;101723.09;5013392;28;45361;-69
2022/07/02 07:34:07;;;;;;;;;3.00;3.00;;;;;19.74;46.06;101723.72;4996087;28;45567;-67
2022/07/02 07:36:33;;;;;;;;;1.50;1.50;;;;;19.72;45.32;101703.94;4995798;28;45576;-69
2022/07/02 07:38:59;;;;;;;;;3.50;2.00;;;;;19.87;45.72;101718.34;5013242;28;46121;-71
2022/07/02 07:41:25;;;;;;;;;1.50;1.50;;;;;19.91;45.63;101719.84;5013694;28;45365;-71
2022/07/02 07:43:53;;;;;;;;;1.00;1.00;;;;;19.97;44.59;101725.75;5014639;28;45555;-71
2022/07/02 07:46:20;;;;;;;;;1.00;1.00;;;;;20.05;44.32;101729.78;4995762;28;45205;-70
2022/07/02 07:48:46;;;;;;;;;1.00;1.00;;;;;20.07;43.35;101719.69;5013953;28;45333;-69
2022/07/02 07:51:12;;;;;;;;;1.00;1.00;;;;;20.13;43.81;101722.84;5013143;28;45381;-69
2022/07/02 07:53:37;;;;;;;;;1.00;0.00;;;;;20.12;43.14;101712.91;5013587;28;45342;-70
2022/07/02 07:56:03;;;;;;;;;1.00;1.00;;;;;20.23;43.26;101720.34;5015732;28;45297;-73
2022/07/02 07:58:29;;;;;;;;;1.00;1.00;;;;;20.23;43.08;101710.31;4999021;28;46232;-70
2022/07/02 08:00:55;;;;;;;;;1.00;1.00;;;;;20.30;42.95;101714.34;5015043;28;45502;-70
2022/07/02 08:03:20;;;;;;;;;0.50;0.50;;;;;20.35;42.83;101709.47;5016951;28;45369;-70
2022/07/02 08:05:46;;;;;;;;;0.75;0.75;;;;;20.41;42.51;101720.91;5016700;28;45304;-71
2022/07/02 08:08:13;;;;;;;;;2.00;1.00;;;;;20.44;42.38;101715.22;5016989;28;46253;-70
2022/07/02 08:10:39;;;;;;;;;1.00;0.75;;;;;20.42;42.57;101701.72;5016821;28;45587;-68
2022/07/02 08:13:04;;;;;;;;;0.75;0.75;;;;;20.54;43.00;101699.97;5017170;28;45174;-69
2022/07/02 08:15:30;;;;;;;;;0.00;0.00;;;;;20.56;41.32;101706.19;5016755;28;45543;-70
2022/07/02 08:17:55;;;;;;;;;0.00;0.00;;;;;20.56;41.50;101708.91;5016614;28;45326;-71
2022/07/02 08:20:21;;;;;;;;;0.25;0.25;;;;;20.49;41.28;101708.50;4998869;28;45374;-71
2022/07/02 08:22:46;;;;;;;;;1.50;0.00;;;;;20.52;41.21;101710.09;5016431;28;45421;-70
2022/07/02 08:25:13;;;;;;;;;0.50;0.50;;;;;20.55;41.36;101710.75;5016406;28;45516;-71
2022/07/02 08:27:42;;;;;;;;;0.50;0.50;;;;;20.61;41.52;101715.75;5016309;28;47273;-71
2022/07/02 08:30:09;;;;;;;;;0.75;0.75;;;;;20.66;41.29;101716.31;5016250;28;45284;-70
2022/07/02 08:32:35;;;;;;;;;1.00;0.00;;;;;20.63;41.41;101696.56;5016483;28;45595;-72
2022/07/02 08:35:00;;;;;;;;;0.00;0.00;;;;;20.74;40.82;101702.13;5016131;28;45556;-69
2022/07/02 08:37:26;;;;;;;;;0.00;0.00;;;;;20.73;40.85;101700.38;5016742;28;45387;-71
2022/07/02 08:39:52;;;;;;;;;1.75;0.00;;;;;20.72;40.70;101713.13;5016324;28;45366;-71
2022/07/02 08:42:30;;;;;;;;;0.75;0.75;;;;;20.71;41.53;101703.22;5017499;28;45467;-70
2022/07/02 08:44:58;;;;;;;;;0.50;0.50;;;;;20.81;40.56;101710.72;5016305;28;45486;-69
2022/07/02 08:47:24;;;;;;;;;1.00;1.00;;;;;20.86;40.78;101695.75;5016058;28;46197;-70
2022/07/02 08:49:55;;;;;;;;;0.25;0.25;;;;;20.89;40.42;101695.53;4998193;28;45432;-70
2022/07/02 08:52:24;;;;;;;;;0.00;0.00;;;;;20.89;39.86;101694.66;4998522;28;45313;-70
2022/07/02 08:54:52;;;;;;;;;0.00;0.00;;;;;20.98;40.24;101697.59;5014620;28;45533;-71
2022/07/02 08:57:20;;;;;;;;;0.00;0.00;;;;;20.95;39.08;101691.47;5016139;28;45580;-71
2022/07/02 08:59:46;;;;;;;;;0.00;0.00;;;;;20.97;39.13;101700.41;5015990;28;46035;-70
2022/07/02 09:02:15;;;;;;;;;0.00;0.00;;;;;21.02;39.32;101695.47;5015988;28;45568;-71
2022/07/02 09:04:46;;;;;;;;;0.00;0.00;;;;;21.05;39.07;101693.41;5015888;28;45373;-70
2022/07/02 09:07:13;;;;;;;;;0.00;0.00;;;;;21.10;39.01;101691.19;5014654;28;45329;-72
2022/07/02 09:09:42;;;;;;;;;0.00;0.00;;;;;21.11;39.23;101697.53;5015661;28;45409;-70
2022/07/02 09:12:10;;;;;;;;;0.00;0.00;;;;;21.13;38.71;101688.25;5015956;28;45438;-71
2022/07/02 09:14:36;;;;;;;;;1.00;1.00;;;;;21.24;38.52;101687.47;5015938;28;45183;-70
2022/07/02 09:17:02;;;;;;;;;0.00;0.00;;;;;21.23;38.72;101682.13;4997419;28;46214;-70
2022/07/02 09:19:28;;;;;;;;;0.00;0.00;;;;;21.30;38.99;101681.56;5016086;28;45295;-70
2022/07/02 09:21:54;;;;;;;;;1.00;1.00;;;;;21.36;38.20;101675.63;5015701;28;45323;-71
2022/07/02 09:24:33;;;;;;;;;0.00;0.00;;;;;21.35;38.02;101692.97;5015807;28;45435;-70
2022/07/02 09:27:03;;;;;;;;;1.00;0.00;;;;;21.37;38.42;101684.69;5015499;28;45538;-70
2022/07/02 09:29:40;;;;;;;;;0.00;0.00;;;;;21.38;38.92;101678.25;4997721;28;45367;-71
2022/07/02 09:32:06;;;;;;;;;0.00;0.00;;;;;21.45;38.70;101671.31;5015429;28;45480;-70
2022/07/02 09:34:31;;;;;;;;;0.75;0.75;;;;;21.49;38.02;101678.28;5015713;28;45510;-70
2022/07/02 09:36:57;;;;;;;;;0.50;0.50;;;;;21.50;39.17;101670.00;5015577;28;46373;-69
2022/07/02 09:39:30;;;;;;;;;0.00;0.00;;;;;21.58;38.89;101674.84;5015591;28;45333;-70
2022/07/02 09:41:56;;;;;;;;;0.50;0.50;;;;;21.63;39.60;101671.75;5015969;28;45503;-68
2022/07/02 09:44:21;;;;;;;;;0.00;0.00;;;;;21.67;39.09;101668.69;5015160;28;45600;-70
2022/07/02 09:46:47;;;;;;;;;1.00;1.00;;;;;21.72;38.89;101665.59;5014887;28;46322;-68
2022/07/02 09:49:14;;;;;;;;;1.50;1.00;;;;;21.69;39.10;101655.78;5015471;28;45329;-71
2022/07/02 09:51:53;;;;;;;;;0.00;0.00;;;;;21.76;38.28;101665.25;5015276;28;45482;-71
2022/07/02 09:54:21;;;;;;;;;0.50;0.50;;;;;21.79;38.10;101664.13;5015059;28;45335;-69
2022/07/02 09:56:51;;;;;;;;;0.00;0.00;;;;;21.78;38.68;101659.63;5015198;28;45620;-71
2022/07/02 09:59:16;;;;;;;;;2.75;1.00;;;;;21.82;39.15;101656.56;5014909;28;45321;-71
2022/07/02 10:01:43;;;;;;;;;0.00;0.00;;;;;21.84;37.09;101648.25;5014896;28;45248;-71
2022/07/02 10:04:09;;;;;;;;;0.25;0.25;;;;;21.85;36.55;101660.94;5014736;28;45874;-71
2022/07/02 10:06:34;;;;;;;;;0.75;0.75;;;;;21.85;37.12;101642.69;5014975;28;46185;-70
2022/07/02 10:09:01;;;;;;;;;0.25;0.25;;;;;21.87;36.99;101645.28;5014742;28;45399;-71
2022/07/02 10:11:28;;;;;;;;;0.50;0.50;;;;;21.95;37.21;101645.53;5015347;28;45281;-71
2022/07/02 10:13:55;;;;;;;;;2.00;0.50;;;;;21.94;36.56;101641.09;5018312;28;45554;-70
2022/07/02 10:16:22;;;;;;;;;0.00;0.00;;;;;21.88;35.66;101631.50;5014537;28;45414;-71
2022/07/02 10:18:48;;;;;;;;;0.00;0.00;;;;;21.86;35.77;101629.91;5014095;28;45298;-70
2022/07/02 10:21:15;;;;;;;;;1.75;1.00;;;;;21.90;36.36;101632.25;5014834;28;45330;-70
2022/07/02 10:23:45;;;;;;;;;0.75;0.75;;;;;21.98;36.78;101628.94;5014070;28;45294;-69
2022/07/02 10:26:11;;;;;;;;;0.00;0.00;;;;;21.98;35.72;101639.00;5014541;28;45304;-70
2022/07/02 10:28:37;;;;;;;;;0.00;0.00;;;;;21.95;36.37;101625.56;5014194;28;45356;-73
2022/07/02 10:31:07;;;;;;;;;0.00;0.00;;;;;21.94;36.83;101605.59;4996597;28;45592;-77
2022/07/02 10:34:00;;;;;;;;;1.00;0.25;;;;;22.11;36.05;101629.72;4996620;28;45647;-70
2022/07/02 10:36:26;;;;;;;;;0.00;0.00;;;;;22.12;36.97;101631.44;5014350;28;45354;-72
2022/07/02 10:38:57;;;;;;;;;0.00;0.00;;;;;22.16;37.58;101626.63;4996457;28;45328;-74
2022/07/02 10:41:31;;;;;;;;;1.00;1.00;;;;;22.15;37.35;101616.69;5014383;28;45448;-74
2022/07/02 10:43:57;;;;;;;;;0.75;0.75;;;;;22.18;38.03;101611.84;5013949;28;45239;-76
2022/07/02 10:46:27;;;;;;;;;0.50;0.50;;;;;22.29;37.78;101621.03;4995919;28;46639;-74
2022/07/02 10:48:55;;;;;;;;;0.00;0.00;;;;;22.26;38.49;101598.44;5014093;28;45434;-75
2022/07/02 10:51:32;;;;;;;;;0.00;0.00;;;;;22.39;36.42;101616.53;5014211;28;45506;-73
2022/07/02 10:54:03;;;;;;;;;1.50;1.50;;;;;22.33;38.16;101595.19;5014051;28;45434;-78
2022/07/02 10:56:42;;;;;;;;;0.75;0.75;;;;;22.39;36.67;101614.69;5013796;28;45379;-73
2022/07/02 10:59:22;;;;;;;;;1.00;1.00;;;;;22.41;37.83;101598.16;5013908;28;45191;-73
2022/07/02 11:02:05;;;;;;;;;0.50;0.50;;;;;22.50;36.68;101608.34;5013948;28;45386;-70
2022/07/02 11:04:31;;;;;;;;;1.50;1.50;;;;;22.52;35.78;101609.97;5014089;28;45417;-71
2022/07/02 11:07:11;;;;;;;;;1.00;1.00;;;;;22.60;35.71;101607.47;4995838;28;46168;-73
2022/07/02 11:09:47;;;;;;;;;1.00;1.00;;;;;22.60;35.54;101602.00;5005317;28;45620;-73
2022/07/02 11:12:18;;;;;;;;;2.00;1.00;;;;;22.67;36.15;101615.16;5021755;28;45569;-74
2022/07/02 11:14:54;;;;;;;;;1.00;1.00;;;;;22.74;35.45;101606.34;5014937;28;45295;-71
2022/07/02 11:17:22;;;;;;;;;1.00;1.00;;;;;22.69;34.93;101591.28;5010291;28;46587;-71
2022/07/02 11:19:52;;;;;;;;;0.00;0.00;;;;;22.78;35.68;101583.22;5012663;28;45308;-70
2022/07/02 11:22:17;;;;;;;;;1.25;1.25;;;;;22.99;35.51;101596.94;5019557;28;45463;-70
2022/07/02 11:24:43;;;;;;;;;1.50;1.50;;;;;23.09;35.14;101592.44;5016914;28;45466;-72
2022/07/02 11:27:09;;;;;;;;;0.50;0.50;;;;;23.19;34.73;101604.34;5013620;28;45572;-70
2022/07/02 11:29:34;;;;;;;;;1.25;1.25;;;;;23.20;34.46;101597.88;5014121;28;45364;-72
2022/07/02 11:32:00;;;;;;;;;1.00;1.00;;;;;23.33;34.62;101597.66;5001119;28;45369;-69
2022/07/02 11:34:29;;;;;;;;;2.00;2.00;;;;;23.41;34.52;101606.09;4998883;28;45503;-71
2022/07/02 11:36:54;;;;;;;;;1.00;1.00;;;;;23.43;34.57;101582.19;5016722;28;45418;-71
2022/07/02 11:39:22;;;;;;;;;0.50;0.50;;;;;23.50;34.29;101593.50;5016549;28;45241;-70
2022/07/02 11:41:48;;;;;;;;;1.75;0.50;;;;;23.54;34.95;101579.44;5016863;28;45320;-71
2022/07/02 11:44:21;;;;;;;;;0.00;0.00;;;;;23.63;34.53;101586.00;5016169;28;45601;-70
2022/07/02 11:46:51;;;;;;;;;0.50;0.50;;;;;23.73;34.27;101582.28;5016024;28;46206;-74
2022/07/02 11:49:28;;;;;;;;;1.75;1.50;;;;;23.85;34.58;101579.47;5016557;28;45544;-69
2022/07/02 11:51:54;;;;;;;;;1.00;1.00;;;;;23.93;32.87;101588.75;5016770;28;45296;-66
2022/07/02 11:54:21;;;;;;;;;0.00;0.00;;;;;24.04;33.81;101576.84;5016122;28;45428;-68
2022/07/02 11:56:49;;;;;;;;;1.00;1.00;;;;;24.13;34.20;101578.75;5016647;28;46230;-75
2022/07/02 11:59:16;;;;;;;;;2.75;0.75;;;;;24.19;32.75;101575.47;5016359;28;45329;-69
2022/07/02 12:01:43;;;;;;;;;1.50;0.75;;;;;24.24;32.17;101569.63;5016319;28;45365;-68
2022/07/02 12:04:11;;;;;;;;;0.50;0.50;;;;;24.29;33.00;101572.78;5016485;28;45367;-70
2022/07/02 12:06:42;;;;;;;;;1.25;0.25;;;;;24.38;33.18;101572.84;5016350;28;46296;-69
2022/07/02 12:09:11;;;;;;;;;1.00;1.00;;;;;24.45;34.57;101559.44;5000539;28;45377;-71
2022/07/02 12:11:39;;;;;;;;;1.50;1.50;;;;;24.55;33.89;101568.56;4998619;28;45338;-71
2022/07/02 12:14:06;;;;;;;;;1.25;0.50;;;;;24.60;34.61;101562.63;5015850;28;45483;-70
2022/07/02 12:16:33;;;;;;;;;1.00;1.00;;;;;24.48;33.52;101529.88;5014658;28;46260;-72
2022/07/02 12:18:59;;;;;;;;;0.25;0.25;;;;;24.72;33.83;101553.28;5015969;28;45243;-68
2022/07/02 12:21:31;;;;;;;;;1.00;1.00;;;;;24.84;33.52;101527.44;5016276;28;45614;-68
2022/07/02 12:23:57;;;;;;;;;1.25;0.75;;;;;25.01;32.43;101529.50;5016167;28;45417;-67
2022/07/02 12:26:24;;;;;;;;;0.75;0.75;;;;;25.05;34.18;101521.84;5015815;28;46142;-69
2022/07/02 12:31:55;;;;;;;;;0.50;0.00;;;;;25.15;33.03;101523.59;5015636;28;45523;-76
2022/07/02 12:34:22;;;;;;;;;1.00;1.00;;;;;25.25;32.61;101509.88;5016081;28;45645;-71
2022/07/02 12:36:51;;;;;;;;;1.50;1.00;;;;;25.37;32.60;101505.06;5015895;28;45385;-76
2022/07/02 12:39:16;;;;;;;;;1.75;1.00;;;;;25.55;32.72;101517.00;5015900;28;45437;-71
2022/07/02 12:41:42;;;;;;;;;0.50;0.50;;;;;25.72;31.54;101510.78;5015529;28;45256;-72
2022/07/02 12:44:16;;;;;;;;;0.00;0.00;;;;;25.91;31.33;101499.72;5014811;28;45289;-75
2022/07/02 12:46:47;;;;;;;;;0.50;0.50;;;;;26.02;31.08;101484.06;4997231;28;47131;-74
2022/07/02 12:49:15;;;;;;;;;0.00;0.00;;;;;26.21;30.36;101490.31;5015562;28;45404;-74
2022/07/02 12:51:53;;;;;;;;;1.75;0.50;;;;;26.37;30.56;101490.53;5015798;28;45292;-73
2022/07/02 12:54:19;;;;;;;;;0.50;0.50;;;;;26.39;28.98;101487.63;5015181;28;45393;-74
2022/07/02 12:56:44;;;;;;;;;0.00;0.00;;;;;26.51;29.67;101489.16;5014840;28;46147;-75
2022/07/02 12:59:09;;;;;;;;;0.00;0.00;;;;;26.59;29.51;101469.97;5014273;28;45430;-75
2022/07/02 13:01:35;;;;;;;;;2.00;0.00;;;;;26.76;29.57;101487.50;5019002;28;45405;-78
2022/07/02 13:04:01;;;;;;;;;0.00;0.00;;;;;26.81;30.52;101481.53;5002069;28;45537;-77
2022/07/02 13:06:26;;;;;;;;;1.00;1.00;;;;;26.77;29.78;101463.63;5018501;28;45856;-78
2022/07/02 13:08:52;;;;;;;;;1.00;1.00;;;;;26.87;29.23;101468.03;5015802;28;45424;-75
2022/07/02 13:11:17;;;;;;;;;1.25;0.00;;;;;26.85;29.40;101441.69;5015399;28;45530;-76
2022/07/02 13:13:42;;;;;;;;;1.00;1.00;;;;;27.02;29.47;101455.44;5014231;28;45764;-76
2022/07/02 13:16:08;;;;;;;;;1.00;1.00;;;;;27.08;29.04;101443.78;4997514;28;46947;-74
2022/07/02 13:18:33;;;;;;;;;1.00;1.00;;;;;27.31;29.34;101451.50;5015571;28;45381;-75
2022/07/02 13:20:59;;;;;;;;;0.00;0.00;;;;;27.29;29.24;101445.31;4998158;28;45445;-75
2022/07/02 13:23:24;;;;;;;;;0.00;0.00;;;;;27.50;28.87;101443.91;5015795;28;45519;-74
2022/07/02 13:25:49;;;;;;;;;0.00;0.00;;;;;27.54;28.74;101438.09;5015924;28;46226;-75
2022/07/02 13:28:15;;;;;;;;;1.00;1.00;;;;;27.70;29.15;101432.69;5015741;28;45451;-74
2022/07/02 13:30:40;;;;;;;;;0.50;0.50;;;;;27.93;28.67;101443.97;5015516;28;45438;-75
2022/07/02 13:33:05;;;;;;;;;0.00;0.00;;;;;28.13;27.07;101445.44;5015514;28;45539;-76
2022/07/02 13:35:31;;;;;;;;;0.75;0.75;;;;;28.25;27.36;101455.13;5015522;28;45835;-76
2022/07/02 13:37:57;;;;;;;;;1.25;1.00;;;;;28.31;27.49;101456.38;5015401;28;45243;-76
2022/07/02 13:40:23;;;;;;;;;1.00;0.00;;;;;28.52;27.08;101442.97;5015603;28;45373;-75
2022/07/02 13:42:49;;;;;;;;;0.00;0.00;;;;;28.72;27.49;101435.25;5016140;28;45619;-75
2022/07/02 13:45:14;;;;;;;;;1.00;1.00;;;;;28.91;27.40;101435.81;5015409;28;45339;-75
2022/07/02 13:47:40;;;;;;;;;0.50;0.50;;;;;29.12;27.32;101434.41;5015027;28;45264;-76
2022/07/02 13:50:06;;;;;;;;;0.00;0.00;;;;;29.32;26.73;101416.44;5015387;28;45502;-75
2022/07/02 13:52:32;;;;;;;;;2.00;0.50;;;;;29.64;26.54;101429.31;5014899;28;45566;-76
2022/07/02 13:54:57;;;;;;;;;1.00;1.00;;;;;29.82;26.37;101413.34;5014924;28;46311;-75
2022/07/02 13:57:23;;;;;;;;;1.00;1.00;;;;;30.06;25.83;101423.47;5015098;28;45621;-75
2022/07/02 13:59:49;;;;;;;;;0.50;0.50;;;;;30.15;26.11;101415.97;5015330;28;45512;-75
2022/07/02 14:02:14;;;;;;;;;1.75;1.00;;;;;30.31;25.36;101413.13;5014892;28;45405;-77
2022/07/02 14:04:40;;;;;;;;;1.50;1.00;;;;;30.59;24.30;101419.88;5014781;28;45499;-75
2022/07/02 14:07:06;;;;;;;;;0.50;0.00;;;;;30.30;25.06;101412.25;5015213;28;45274;-76
2022/07/02 14:09:35;;;;;;;;;2.25;0.50;;;;;30.47;25.34;101418.53;5014680;28;45318;-76
2022/07/02 14:12:05;;;;;;;;;0.25;0.25;;;;;30.68;24.58;101423.44;5014908;28;45385;-75
2022/07/02 14:14:32;;;;;;;;;0.00;0.00;;;;;30.77;24.28;101409.34;5014799;28;45306;-75
2022/07/02 14:16:58;;;;;;;;;1.25;0.25;;;;;31.06;24.85;101411.31;5014542;28;45531;-76
2022/07/02 14:19:23;;;;;;;;;1.00;1.00;;;;;31.31;24.24;101416.66;5014799;28;45199;-75
2022/07/02 14:21:48;;;;;;;;;1.50;1.50;;;;;31.47;23.45;101414.59;5015358;28;45344;-76
2022/07/02 14:24:14;;;;;;;;;0.75;0.75;;;;;31.74;23.78;101415.84;4996884;28;47181;-76
2022/07/02 14:26:39;;;;;;;;;0.75;0.75;;;;;32.31;23.18;101415.13;5014807;28;45484;-76
2022/07/02 14:29:04;;;;;;;;;2.00;2.00;;;;;32.79;22.62;101395.97;5014148;28;45174;-76
2022/07/02 14:31:30;;;;;;;;;1.50;1.50;;;;;33.40;22.16;101402.69;5014384;28;45158;-76
2022/07/02 14:33:55;;;;;;;;;1.00;1.00;;;;;33.71;21.20;101389.19;5014982;28;45315;-80
2022/07/02 14:36:20;;;;;;;;;1.00;1.00;;;;;34.22;21.66;101390.69;5014735;28;45474;-79
2022/07/02 14:38:46;;;;;;;;;1.00;1.00;;;;;34.60;20.51;101377.13;5014620;28;45552;-79
2022/07/02 14:43:55;;;;;;;;;1.00;1.00;;;;;35.18;19.95;101406.09;5013647;28;45847;-76
2022/07/02 14:46:29;;;;;;;;;0.25;0.25;;;;;35.22;19.69;101397.06;5014054;28;45311;-74
2022/07/02 14:48:55;;;;;;;;;1.00;1.00;;;;;35.24;19.41;101396.88;5014765;28;45684;-75
2022/07/02 14:51:21;;;;;;;;;1.00;1.00;;;;;34.85;19.68;101394.94;5014271;28;45491;-74
2022/07/02 14:53:47;;;;;;;;;0.00;0.00;;;;;34.58;20.07;101394.03;5014063;28;46191;-75
2022/07/02 14:56:12;;;;;;;;;2.75;0.25;;;;;34.62;19.51;101388.91;4996338;28;45445;-77
2022/07/02 14:58:38;;;;;;;;;1.00;1.00;;;;;34.76;19.60;101388.72;5014467;28;45250;-77
2022/07/02 15:01:03;;;;;;;;;0.50;0.50;;;;;34.66;20.13;101381.81;5013865;28;45433;-76
2022/07/02 15:03:28;;;;;;;;;2.00;1.00;;;;;34.84;20.08;101373.72;5014175;28;46129;-76
2022/07/02 15:05:54;;;;;;;;;1.00;1.00;;;;;35.16;19.43;101383.13;5016447;28;45452;-76
2022/07/02 15:08:19;;;;;;;;;0.50;0.50;;;;;35.38;20.11;101381.00;5017924;28;45428;-75
2022/07/02 15:10:44;;;;;;;;;1.00;1.00;;;;;35.50;19.04;101365.28;5017812;28;45441;-76
2022/07/02 15:13:10;;;;;;;;;2.00;1.00;;;;;35.54;19.27;101361.88;4999646;28;46102;-77
2022/07/02 15:18:20;;;;;;;;;2.00;1.00;;;;;35.54;18.69;101367.44;5017659;28;45315;-76
2022/07/02 15:20:47;;;;;;;;;1.00;0.00;;;;;35.46;18.19;101377.97;5017048;28;45340;-76
2022/07/02 15:23:19;;;;;;;;;1.00;0.00;;;;;35.10;19.21;101375.66;5017494;28;46092;-75
2022/07/02 15:25:45;;;;;;;;;0.00;0.00;;;;;35.12;19.22;101368.78;5017192;28;45393;-75
2022/07/02 15:28:19;;;;;;;;;1.00;1.00;;;;;34.97;19.00;101368.13;5017641;28;45469;-75
2022/07/02 15:30:46;;;;;;;;;0.25;0.00;;;;;35.08;19.80;101367.50;5017097;28;45608;-76
2022/07/02 15:33:11;;;;;;;;;2.00;1.00;;;;;35.31;19.49;101375.41;5017212;28;45348;-76
2022/07/02 15:35:39;;;;;;;;;0.75;0.75;;;;;35.42;19.70;101362.75;5017243;28;45314;-75
2022/07/02 15:38:05;;;;;;;;;0.25;0.25;;;;;35.41;19.54;101350.72;5017254;28;45372;-76
2022/07/02 15:40:33;;;;;;;;;2.00;1.00;;;;;35.40;19.48;101359.31;5017132;28;45396;-75
2022/07/02 15:42:59;;;;;;;;;1.25;1.00;;;;;35.18;18.75;101351.19;5017684;28;46235;-77
2022/07/02 15:45:25;;;;;;;;;0.00;0.00;;;;;35.07;18.52;101340.69;5016546;28;45579;-75
2022/07/02 15:47:50;;;;;;;;;0.75;0.75;;;;;35.16;19.00;101349.69;5017126;28;45369;-77
2022/07/02 15:50:16;;;;;;;;;1.00;1.00;;;;;35.22;19.16;101334.88;5017213;28;45475;-75
2022/07/02 15:52:54;;;;;;;;;0.75;0.75;;;;;35.36;18.96;101330.16;5016715;28;45348;-77
2022/07/02 15:55:29;;;;;;;;;1.00;1.00;;;;;35.29;18.74;101330.19;5016972;28;45325;-77
2022/07/02 15:57:58;;;;;;;;;0.25;0.25;;;;;35.10;19.26;101323.53;5017145;28;45322;-77
2022/07/02 16:00:23;;;;;;;;;1.00;1.00;;;;;34.87;18.86;101317.59;5016701;28;45455;-78
2022/07/02 16:02:49;;;;;;;;;1.00;0.00;;;;;34.74;19.44;101326.78;5016593;28;45647;-77
2022/07/02 16:05:17;;;;;;;;;0.25;0.25;;;;;34.38;19.04;101329.09;5016913;28;45556;-79